Terminal Aerodrome Forecast
Issued by NWS Pendleton, OR

Home | Current Version | Previous Version | Text Only | Print | Product List | Glossary On
Versions: 1 2 3 4 5 6 7 8 9 10 11 12
000
FTUS46 KPDT 272300
TAFPDT
TAF
KPDT 272320Z 2800/2824 29010KT P6SM SKC
     FM280400 24007KT P6SM SKC
     FM281000 VRB06KT P6SM FEW250
     FM281600 26011KT P6SM FEW200
     FM282000 28014G20KT P6SM SCT200=

USA.gov is the U.S. government's official web portal to all federal, state and local government web resources and services.